Time;durP1;ratioP1;P1;durP2;ratioP2;P2;SDS_P1;SDS_P2;PMS_P1;PMS_P2;Temp;Humidity;BMP_temperature;BMP_pressure;BME280_temperature;BME280_humidity;BME280_pressure;Samples;Min_cycle;Max_cycle;Signal;HPM_P1;HPM_P2
2024/04/11 00:00:35;;;;;;;6.63;0.87;;;;;;;;;;5328461;26;21005;-90
2024/04/11 00:03:01;;;;;;;0.30;0.30;;;;;;;;;;5351693;26;20299;-92
2024/04/11 00:05:27;;;;;;;0.87;0.50;;;;;;;;;;5346741;26;20298;-93
2024/04/11 00:07:54;;;;;;;2.63;0.83;;;;;;;;;;5324725;26;20276;-91
2024/04/11 00:10:20;;;;;;;2.00;0.63;;;;;;;;;;5323195;26;20267;-91
2024/04/11 00:12:46;;;;;;;0.37;0.37;;;;;;;;;;5324085;26;20249;-90
2024/04/11 00:15:12;;;;;;;1.07;0.80;;;;;;;;;;5325121;26;20252;-90
2024/04/11 00:17:38;;;;;;;1.17;0.97;;;;;;;;;;5323973;26;20265;-89
2024/04/11 00:20:05;;;;;;;5.13;0.90;;;;;;;;;;5323509;26;20270;-90
2024/04/11 00:22:31;;;;;;;1.00;0.80;;;;;;;;;;5355734;26;20739;-89
2024/04/11 00:24:58;;;;;;;2.47;0.70;;;;;;;;;;5315188;26;20245;-89
2024/04/11 00:27:29;;;;;;;2.07;0.57;;;;;;;;;;5322954;26;20311;-91
2024/04/11 00:29:58;;;;;;;0.93;0.60;;;;;;;;;;5326767;26;20348;-90
2024/04/11 00:32:24;;;;;;;0.50;0.50;;;;;;;;;;5350667;26;20273;-92
2024/04/11 00:34:50;;;;;;;2.20;1.07;;;;;;;;;;5315971;26;20299;-93
2024/04/11 00:37:22;;;;;;;0.43;0.37;;;;;;;;;;5325309;26;20777;-91
2024/04/11 00:39:51;;;;;;;0.47;0.47;;;;;;;;;;5351711;26;20625;-91
2024/04/11 00:42:19;;;;;;;1.63;0.60;;;;;;;;;;5350280;26;20241;-90
2024/04/11 00:44:47;;;;;;;0.33;0.33;;;;;;;;;;5324138;26;20265;-90
2024/04/11 00:47:16;;;;;;;0.90;0.60;;;;;;;;;;5349915;26;20370;-91
2024/04/11 00:49:46;;;;;;;0.63;0.50;;;;;;;;;;5324405;26;20716;-91
2024/04/11 00:52:16;;;;;;;0.40;0.40;;;;;;;;;;5348628;26;20619;-91
2024/04/11 00:54:44;;;;;;;1.07;0.73;;;;;;;;;;5322499;26;20241;-91
2024/04/11 00:57:13;;;;;;;0.70;0.57;;;;;;;;;;5342585;26;20261;-92
2024/04/11 00:59:39;;;;;;;1.60;1.03;;;;;;;;;;5356308;26;20254;-91
2024/04/11 01:02:06;;;;;;;0.60;0.60;;;;;;;;;;5324536;26;20266;-91
2024/04/11 01:04:33;;;;;;;1.00;0.73;;;;;;;;;;5325049;26;20265;-92
2024/04/11 01:07:09;;;;;;;0.77;0.77;;;;;;;;;;5323226;26;20310;-91
2024/04/11 01:09:42;;;;;;;0.93;0.57;;;;;;;;;;5322499;26;20292;-91
2024/04/11 01:12:12;;;;;;;1.17;1.07;;;;;;;;;;5307047;26;20253;-91
2024/04/11 01:14:38;;;;;;;0.40;0.40;;;;;;;;;;5301251;26;20668;-91
2024/04/11 01:17:05;;;;;;;2.10;0.70;;;;;;;;;;5322350;26;20268;-90
2024/04/11 01:19:34;;;;;;;1.80;1.07;;;;;;;;;;5320741;26;20628;-92
2024/04/11 01:22:12;;;;;;;7.00;0.90;;;;;;;;;;5311973;26;20283;-91
2024/04/11 01:24:41;;;;;;;7.67;0.80;;;;;;;;;;5323237;26;20275;-91
2024/04/11 01:27:24;;;;;;;0.90;0.90;;;;;;;;;;5348027;26;20269;-91
2024/04/11 01:29:51;;;;;;;0.47;0.47;;;;;;;;;;5322392;26;20320;-91
2024/04/11 01:32:27;;;;;;;1.03;0.87;;;;;;;;;;5319742;26;20774;-92
2024/04/11 01:34:56;;;;;;;0.53;0.53;;;;;;;;;;5348641;26;20259;-92
2024/04/11 01:37:24;;;;;;;4.33;1.10;;;;;;;;;;5319587;26;20263;-91
2024/04/11 01:39:51;;;;;;;1.03;1.03;;;;;;;;;;5334349;26;20748;-90
2024/04/11 01:42:18;;;;;;;1.33;1.30;;;;;;;;;;5323066;26;20291;-91
2024/04/11 01:44:46;;;;;;;1.57;0.87;;;;;;;;;;5324225;26;20374;-91
2024/04/11 01:47:15;;;;;;;1.57;1.00;;;;;;;;;;5320558;26;20268;-91
2024/04/11 01:49:44;;;;;;;0.50;0.50;;;;;;;;;;5348996;26;20762;-91
2024/04/11 01:52:11;;;;;;;0.63;0.60;;;;;;;;;;5320408;26;20268;-92
2024/04/11 01:54:40;;;;;;;1.90;0.80;;;;;;;;;;5324521;26;20275;-90
2024/04/11 01:57:06;;;;;;;0.70;0.70;;;;;;;;;;5293501;26;20263;-91
2024/04/11 01:59:35;;;;;;;4.37;1.10;;;;;;;;;;5325568;26;20260;-92
2024/04/11 02:02:04;;;;;;;0.90;0.90;;;;;;;;;;5349398;26;20269;-91
2024/04/11 02:04:33;;;;;;;1.40;1.20;;;;;;;;;;5349781;26;20268;-91
2024/04/11 02:07:00;;;;;;;1.00;0.90;;;;;;;;;;5296687;26;20257;-94
2024/04/11 02:09:37;;;;;;;1.00;0.90;;;;;;;;;;5325051;26;20248;-91
2024/04/11 02:12:04;;;;;;;0.57;0.57;;;;;;;;;;5336050;26;20262;-91
2024/04/11 02:14:31;;;;;;;3.23;0.80;;;;;;;;;;5344027;26;20375;-91
2024/04/11 02:16:57;;;;;;;1.47;1.23;;;;;;;;;;5322295;26;21412;-92
2024/04/11 02:19:23;;;;;;;3.97;1.83;;;;;;;;;;5336448;26;20284;-91
2024/04/11 02:21:49;;;;;;;1.47;0.90;;;;;;;;;;5325912;26;20338;-92
2024/04/11 02:24:19;;;;;;;1.17;1.13;;;;;;;;;;5326318;26;20256;-92
2024/04/11 02:26:48;;;;;;;1.50;0.93;;;;;;;;;;5349464;26;20264;-92
2024/04/11 02:29:23;;;;;;;1.33;1.23;;;;;;;;;;5355083;26;20276;-91
2024/04/11 02:31:52;;;;;;;2.40;1.10;;;;;;;;;;5319104;26;20791;-92
2024/04/11 02:34:19;;;;;;;2.00;1.47;;;;;;;;;;5313665;26;20302;-93
2024/04/11 02:36:47;;;;;;;1.13;1.03;;;;;;;;;;5326568;26;20295;-92
2024/04/11 02:39:15;;;;;;;3.13;1.03;;;;;;;;;;5328317;26;20260;-92
2024/04/11 02:41:43;;;;;;;0.77;0.77;;;;;;;;;;5356753;26;20370;-91
2024/04/11 02:44:10;;;;;;;3.43;1.00;;;;;;;;;;5328122;26;20261;-92
2024/04/11 02:46:39;;;;;;;1.30;0.80;;;;;;;;;;5323610;26;20826;-91
2024/04/11 02:49:05;;;;;;;0.97;0.63;;;;;;;;;;5322309;26;20298;-92
2024/04/11 02:51:37;;;;;;;4.87;1.00;;;;;;;;;;5325831;26;20245;-93
2024/04/11 02:54:10;;;;;;;1.63;1.40;;;;;;;;;;5326638;26;20263;-91
2024/04/11 02:56:40;;;;;;;4.97;1.63;;;;;;;;;;5326894;26;20361;-92
2024/04/11 02:59:11;;;;;;;0.97;0.90;;;;;;;;;;5289111;26;20260;-91
2024/04/11 03:01:49;;;;;;;1.87;1.50;;;;;;;;;;5321119;26;20260;-92
2024/04/11 03:04:23;;;;;;;2.73;1.77;;;;;;;;;;5317530;26;20782;-92
2024/04/11 03:06:52;;;;;;;1.63;1.53;;;;;;;;;;5325507;26;20246;-91
2024/04/11 03:09:21;;;;;;;2.30;1.80;;;;;;;;;;5352875;26;20245;-92
2024/04/11 03:11:50;;;;;;;3.40;0.83;;;;;;;;;;5326498;26;20276;-91
2024/04/11 03:14:16;;;;;;;1.67;1.57;;;;;;;;;;5322885;26;20427;-91
2024/04/11 03:16:45;;;;;;;4.33;2.40;;;;;;;;;;5326316;26;20267;-91
2024/04/11 03:19:11;;;;;;;0.63;0.63;;;;;;;;;;5327026;26;20257;-91
2024/04/11 03:21:37;;;;;;;1.37;1.27;;;;;;;;;;5328529;26;20248;-92
2024/04/11 03:24:06;;;;;;;0.60;0.60;;;;;;;;;;5288012;26;20655;-92
2024/04/11 03:26:32;;;;;;;10.73;1.67;;;;;;;;;;5266896;26;20830;-91
2024/04/11 03:28:58;;;;;;;2.50;1.13;;;;;;;;;;5300937;26;20713;-90
2024/04/11 03:31:24;;;;;;;1.50;1.17;;;;;;;;;;5263675;26;20431;-90
2024/04/11 03:33:51;;;;;;;5.10;1.37;;;;;;;;;;5262895;26;20777;-92
2024/04/11 03:36:19;;;;;;;1.80;1.43;;;;;;;;;;5321197;26;20272;-89
2024/04/11 03:38:45;;;;;;;4.07;2.27;;;;;;;;;;5289077;26;20269;-90
2024/04/11 03:41:12;;;;;;;1.87;1.43;;;;;;;;;;5259414;26;20644;-90
2024/04/11 03:43:39;;;;;;;2.80;1.40;;;;;;;;;;5319583;26;20968;-90
2024/04/11 03:46:05;;;;;;;1.63;1.53;;;;;;;;;;5260715;26;20313;-91
2024/04/11 03:48:41;;;;;;;5.07;1.20;;;;;;;;;;5264836;26;20266;-90
2024/04/11 03:51:19;;;;;;;1.17;0.77;;;;;;;;;;5209913;26;20293;-90
2024/04/11 03:54:00;;;;;;;1.97;1.80;;;;;;;;;;5274083;26;20294;-93
2024/04/11 03:56:29;;;;;;;3.07;1.87;;;;;;;;;;5354467;26;20279;-91
2024/04/11 03:58:59;;;;;;;4.10;1.50;;;;;;;;;;5327294;26;20307;-91
2024/04/11 04:01:29;;;;;;;1.30;1.20;;;;;;;;;;5316488;26;20864;-93
2024/04/11 04:04:04;;;;;;;1.63;1.13;;;;;;;;;;5333313;26;21013;-93
2024/04/11 04:06:38;;;;;;;1.73;1.17;;;;;;;;;;5329417;26;20303;-91
2024/04/11 04:09:07;;;;;;;1.53;1.07;;;;;;;;;;5323634;26;20382;-92
2024/04/11 04:11:36;;;;;;;1.43;1.33;;;;;;;;;;5324084;26;20265;-93
2024/04/11 04:14:17;;;;;;;1.97;1.53;;;;;;;;;;5322336;26;20268;-91
2024/04/11 04:16:48;;;;;;;1.00;0.97;;;;;;;;;;5324861;26;20709;-91
2024/04/11 04:19:20;;;;;;;2.27;1.53;;;;;;;;;;5298900;26;20315;-93
2024/04/11 04:21:54;;;;;;;0.80;0.80;;;;;;;;;;5327864;26;20274;-92
2024/04/11 04:24:26;;;;;;;1.27;0.73;;;;;;;;;;5326896;26;20248;-91
2024/04/11 04:26:52;;;;;;;2.50;1.63;;;;;;;;;;5326679;26;20277;-91
2024/04/11 04:29:21;;;;;;;6.33;1.63;;;;;;;;;;5327338;26;20322;-93
2024/04/11 04:31:50;;;;;;;1.60;1.50;;;;;;;;;;5325321;26;20306;-93
2024/04/11 04:34:17;;;;;;;0.90;0.90;;;;;;;;;;5354393;26;20319;-92
2024/04/11 04:36:45;;;;;;;3.10;1.10;;;;;;;;;;5324201;26;20279;-91
2024/04/11 04:39:13;;;;;;;2.73;1.43;;;;;;;;;;5317192;26;20264;-91
2024/04/11 04:41:47;;;;;;;1.90;1.70;;;;;;;;;;5323524;26;20304;-91
2024/04/11 04:44:22;;;;;;;5.27;2.63;;;;;;;;;;5313229;26;20263;-91
2024/04/11 04:46:58;;;;;;;2.63;1.50;;;;;;;;;;5357423;26;20251;-92
2024/04/11 04:49:35;;;;;;;7.50;1.50;;;;;;;;;;5329707;26;20278;-91
2024/04/11 04:52:01;;;;;;;2.10;1.93;;;;;;;;;;5322165;26;20228;-90
2024/04/11 04:54:44;;;;;;;2.07;1.90;;;;;;;;;;5342236;26;20719;-93
2024/04/11 04:57:11;;;;;;;4.07;1.83;;;;;;;;;;5316009;26;20261;-94
2024/04/11 04:59:38;;;;;;;1.17;1.07;;;;;;;;;;5326018;26;20254;-93
2024/04/11 05:02:06;;;;;;;3.00;1.77;;;;;;;;;;5326645;26;20427;-92
2024/04/11 05:04:52;;;;;;;1.27;1.17;;;;;;;;;;5322385;26;20267;-92
2024/04/11 05:07:24;;;;;;;3.73;1.60;;;;;;;;;;5324492;26;20263;-92
2024/04/11 05:10:01;;;;;;;3.13;1.37;;;;;;;;;;5330436;26;20264;-92
2024/04/11 05:12:43;;;;;;;3.00;2.23;;;;;;;;;;5296707;26;20276;-93
2024/04/11 05:15:12;;;;;;;1.63;1.30;;;;;;;;;;5326772;26;20768;-92
2024/04/11 05:17:43;;;;;;;2.53;1.60;;;;;;;;;;5353181;26;20263;-90
2024/04/11 05:20:36;;;;;;;3.50;1.40;;;;;;;;;;5354221;26;20440;-94
2024/04/11 05:23:07;;;;;;;3.20;2.43;;;;;;;;;;5307747;26;20282;-89
2024/04/11 05:25:36;;;;;;;3.13;2.60;;;;;;;;;;5312435;26;20301;-88
2024/04/11 05:28:07;;;;;;;1.30;1.17;;;;;;;;;;5329787;26;20256;-89
2024/04/11 05:30:40;;;;;;;1.60;1.43;;;;;;;;;;5324033;26;20244;-88
2024/04/11 05:33:09;;;;;;;2.33;1.60;;;;;;;;;;5323608;26;20306;-88
2024/04/11 05:35:36;;;;;;;3.90;1.63;;;;;;;;;;5319457;26;20294;-89
2024/04/11 05:38:02;;;;;;;10.27;1.60;;;;;;;;;;5321092;26;20265;-85
2024/04/11 05:40:32;;;;;;;2.53;2.07;;;;;;;;;;5295809;26;20263;-85
2024/04/11 05:42:59;;;;;;;2.67;2.37;;;;;;;;;;5351836;26;20283;-86
2024/04/11 05:45:33;;;;;;;2.03;1.83;;;;;;;;;;5320469;26;20249;-87
2024/04/11 05:48:03;;;;;;;3.17;2.33;;;;;;;;;;5279731;26;20273;-87
2024/04/11 05:50:29;;;;;;;3.07;1.83;;;;;;;;;;5257947;27;20303;-90
2024/04/11 05:52:58;;;;;;;2.03;1.77;;;;;;;;;;5231460;27;20362;-88
2024/04/11 05:55:24;;;;;;;2.33;1.17;;;;;;;;;;5230394;27;20275;-87
2024/04/11 05:57:53;;;;;;;3.17;2.40;;;;;;;;;;5226777;27;20584;-87
2024/04/11 06:00:42;;;;;;;2.07;1.57;;;;;;;;;;5257703;27;20345;-92
2024/04/11 06:03:11;;;;;;;8.03;1.27;;;;;;;;;;5233122;27;20371;-92
2024/04/11 06:06:11;;;;;;;2.53;1.47;;;;;;;;;;5229836;27;20262;-92
2024/04/11 06:08:55;;;;;;;3.07;1.87;;;;;;;;;;5280963;27;20305;-92
2024/04/11 06:11:24;;;;;;;2.07;1.43;;;;;;;;;;5244459;27;20277;-92
2024/04/11 06:13:53;;;;;;;3.40;2.40;;;;;;;;;;5262432;27;20364;-93
2024/04/11 06:16:21;;;;;;;3.53;2.37;;;;;;;;;;5222194;27;20334;-92
2024/04/11 06:18:54;;;;;;;1.60;1.27;;;;;;;;;;5293283;26;20236;-89
2024/04/11 06:21:31;;;;;;;2.90;1.80;;;;;;;;;;5331320;26;20249;-93
2024/04/11 06:24:00;;;;;;;1.50;1.40;;;;;;;;;;5301057;26;20269;-91
2024/04/11 06:26:29;;;;;;;2.03;1.23;;;;;;;;;;5359785;26;20307;-92
2024/04/11 06:29:07;;;;;;;3.40;1.63;;;;;;;;;;5335401;26;20267;-90
2024/04/11 06:31:34;;;;;;;3.83;1.80;;;;;;;;;;5325724;26;20257;-91
2024/04/11 06:34:02;;;;;;;3.23;2.47;;;;;;;;;;5356002;26;20299;-93
2024/04/11 06:36:33;;;;;;;4.37;2.27;;;;;;;;;;5355455;26;20291;-91
2024/04/11 06:39:04;;;;;;;3.60;2.13;;;;;;;;;;5344451;26;20249;-91
2024/04/11 06:41:33;;;;;;;3.23;1.53;;;;;;;;;;5303951;26;20674;-92
2024/04/11 06:44:03;;;;;;;3.83;2.13;;;;;;;;;;5361727;26;20283;-92
2024/04/11 06:46:39;;;;;;;;;;;;;;;;;;;;;
2024/04/11 06:49:09;;;;;;;2.47;1.97;;;;;;;;;;5389680;26;20374;-92
2024/04/11 06:51:38;;;;;;;1.97;1.57;;;;;;;;;;5372743;26;20708;-93
2024/04/11 06:54:05;;;;;;;3.43;1.77;;;;;;;;;;5322464;26;20299;-93
2024/04/11 06:56:34;;;;;;;3.70;2.90;;;;;;;;;;5361291;26;20282;-92
2024/04/11 06:59:01;;;;;;;2.83;2.20;;;;;;;;;;5303575;26;20257;-92
2024/04/11 07:01:30;;;;;;;3.33;2.43;;;;;;;;;;5324372;26;20308;-93
2024/04/11 07:03:59;;;;;;;2.73;1.43;;;;;;;;;;5278336;27;20278;-92
2024/04/11 07:06:26;;;;;;;3.57;2.20;;;;;;;;;;5215892;27;20238;-91
2024/04/11 07:08:52;;;;;;;5.77;2.70;;;;;;;;;;5204256;27;20349;-91
2024/04/11 07:11:27;;;;;;;7.47;2.70;;;;;;;;;;5215131;27;20309;-92
2024/04/11 07:13:57;;;;;;;4.20;2.40;;;;;;;;;;5258468;27;20621;-94
2024/04/11 07:16:29;;;;;;;2.97;1.53;;;;;;;;;;5218680;27;20334;-92
2024/04/11 07:18:58;;;;;;;4.53;2.90;;;;;;;;;;5284558;27;20501;-92
2024/04/11 07:21:30;;;;;;;1.40;1.30;;;;;;;;;;5286174;27;20314;-92
2024/04/11 07:23:59;;;;;;;4.13;2.87;;;;;;;;;;5270327;27;20306;-92
2024/04/11 07:26:30;;;;;;;2.33;1.40;;;;;;;;;;5281384;27;20312;-92
2024/04/11 07:29:00;;;;;;;5.17;1.97;;;;;;;;;;5280452;27;20262;-93
2024/04/11 07:31:29;;;;;;;4.17;2.43;;;;;;;;;;5286866;27;20339;-92
2024/04/11 07:34:02;;;;;;;3.30;2.17;;;;;;;;;;5290165;26;20615;-94
2024/04/11 07:36:32;;;;;;;2.90;2.17;;;;;;;;;;5327086;26;20735;-91
2024/04/11 07:39:03;;;;;;;4.50;2.27;;;;;;;;;;5328458;26;20286;-93
2024/04/11 07:44:23;;;;;;;2.77;2.13;;;;;;;;;;5325974;26;20853;-93
2024/04/11 07:46:58;;;;;;;1.40;1.10;;;;;;;;;;5300970;26;20303;-92
2024/04/11 07:49:27;;;;;;;2.87;2.47;;;;;;;;;;5331978;26;20280;-92
2024/04/11 07:51:59;;;;;;;2.87;2.57;;;;;;;;;;5298323;26;20244;-92
2024/04/11 07:54:29;;;;;;;5.10;2.60;;;;;;;;;;5322805;26;20249;-91
2024/04/11 07:56:55;;;;;;;2.93;2.27;;;;;;;;;;5291177;26;20251;-92
2024/04/11 07:59:24;;;;;;;3.87;3.47;;;;;;;;;;5300581;26;20311;-94
2024/04/11 08:01:51;;;;;;;3.13;1.80;;;;;;;;;;5293418;26;21227;-94
2024/04/11 08:04:35;;;;;;;2.97;1.83;;;;;;;;;;5322516;26;20324;-93
2024/04/11 08:07:02;;;;;;;3.33;2.63;;;;;;;;;;5326424;26;20341;-93
2024/04/11 08:09:40;;;;;;;2.27;1.67;;;;;;;;;;5328494;26;20245;-94
2024/04/11 08:12:07;;;;;;;5.67;1.43;;;;;;;;;;5324436;26;20269;-92
2024/04/11 08:14:36;;;;;;;2.70;2.33;;;;;;;;;;5326502;26;20489;-93
2024/04/11 08:17:07;;;;;;;3.37;1.43;;;;;;;;;;5326681;26;20303;-91
2024/04/11 08:19:36;;;;;;;4.43;2.50;;;;;;;;;;5327004;26;20705;-91
2024/04/11 08:22:05;;;;;;;5.97;2.90;;;;;;;;;;5324099;26;20250;-92
2024/04/11 08:24:31;;;;;;;9.27;1.93;;;;;;;;;;5329726;26;20276;-88
2024/04/11 08:26:57;;;;;;;4.90;1.63;;;;;;;;;;5321201;26;20669;-87
2024/04/11 08:29:23;;;;;;;5.87;1.87;;;;;;;;;;5335681;26;20303;-88
2024/04/11 08:31:50;;;;;;;2.03;1.70;;;;;;;;;;5323836;26;20264;-91
2024/04/11 08:34:20;;;;;;;2.90;1.30;;;;;;;;;;5300299;26;20268;-89
2024/04/11 08:36:47;;;;;;;4.70;2.83;;;;;;;;;;5327335;26;20248;-88
2024/04/11 08:39:14;;;;;;;2.27;2.07;;;;;;;;;;5323874;26;20348;-92
2024/04/11 08:41:42;;;;;;;1.67;1.40;;;;;;;;;;5324595;26;20338;-89
2024/04/11 08:44:11;;;;;;;11.67;2.67;;;;;;;;;;5327153;26;20303;-93
2024/04/11 08:46:37;;;;;;;2.77;1.90;;;;;;;;;;5326947;26;20609;-89
2024/04/11 08:49:03;;;;;;;5.03;1.13;;;;;;;;;;5328567;26;20348;-92
2024/04/11 08:51:33;;;;;;;1.20;1.20;;;;;;;;;;5322639;26;20250;-92
2024/04/11 08:54:03;;;;;;;2.97;1.87;;;;;;;;;;5325333;26;20626;-88
2024/04/11 08:56:29;;;;;;;3.73;1.93;;;;;;;;;;5355839;26;20309;-91
2024/04/11 08:58:55;;;;;;;3.20;1.27;;;;;;;;;;5323259;26;20307;-92
2024/04/11 09:01:23;;;;;;;3.90;1.80;;;;;;;;;;5353378;26;20263;-90
2024/04/11 09:03:49;;;;;;;2.73;1.53;;;;;;;;;;5353507;26;20247;-88
2024/04/11 09:06:23;;;;;;;4.33;2.20;;;;;;;;;;5356014;26;20797;-92
2024/04/11 09:08:54;;;;;;;3.07;1.57;;;;;;;;;;5354770;26;20263;-91
2024/04/11 09:11:23;;;;;;;2.23;1.47;;;;;;;;;;5260785;27;20831;-88
2024/04/11 09:13:50;;;;;;;1.40;1.33;;;;;;;;;;5214926;27;20309;-90
2024/04/11 09:16:21;;;;;;;4.23;1.03;;;;;;;;;;5240263;27;20278;-90
2024/04/11 09:18:48;;;;;;;2.07;1.97;;;;;;;;;;5270813;27;20317;-89
2024/04/11 09:21:14;;;;;;;3.07;1.33;;;;;;;;;;5230431;27;20318;-90
2024/04/11 09:23:47;;;;;;;1.27;1.17;;;;;;;;;;5256424;27;20289;-91
2024/04/11 09:26:14;;;;;;;7.20;1.70;;;;;;;;;;5237581;27;20265;-88
2024/04/11 09:28:40;;;;;;;4.50;1.90;;;;;;;;;;5294385;27;20314;-85
2024/04/11 09:31:09;;;;;;;2.97;2.03;;;;;;;;;;5238486;26;20357;-90
2024/04/11 09:33:39;;;;;;;9.10;1.80;;;;;;;;;;5231726;27;20246;-91
2024/04/11 09:36:09;;;;;;;3.67;2.03;;;;;;;;;;5211361;27;20848;-88
2024/04/11 09:38:41;;;;;;;3.07;1.53;;;;;;;;;;5241834;27;20293;-91
2024/04/11 09:41:11;;;;;;;4.20;1.23;;;;;;;;;;5231361;27;20274;-90
2024/04/11 09:43:41;;;;;;;2.00;1.50;;;;;;;;;;5348682;26;20284;-88
2024/04/11 09:46:17;;;;;;;1.60;1.20;;;;;;;;;;5322424;26;20651;-89
2024/04/11 09:48:47;;;;;;;7.43;1.80;;;;;;;;;;5354118;26;20298;-89
2024/04/11 09:51:15;;;;;;;7.33;2.47;;;;;;;;;;5355722;26;20240;-89
2024/04/11 09:53:42;;;;;;;2.63;2.40;;;;;;;;;;5307623;26;20632;-91
2024/04/11 09:56:10;;;;;;;1.63;1.43;;;;;;;;;;5324496;26;20269;-91
2024/04/11 09:58:41;;;;;;;6.23;1.97;;;;;;;;;;5325046;26;20310;-89
2024/04/11 10:01:20;;;;;;;3.87;1.37;;;;;;;;;;5326258;26;20279;-91
2024/04/11 10:03:46;;;;;;;7.77;2.30;;;;;;;;;;5325639;26;20435;-90
2024/04/11 10:06:13;;;;;;;2.40;1.53;;;;;;;;;;5325076;26;20252;-89
2024/04/11 10:08:42;;;;;;;2.87;1.40;;;;;;;;;;5352402;26;20290;-88
2024/04/11 10:11:12;;;;;;;6.47;2.03;;;;;;;;;;5322457;26;20349;-89
2024/04/11 10:13:40;;;;;;;7.00;1.77;;;;;;;;;;5326123;26;20329;-88
2024/04/11 10:16:21;;;;;;;6.43;2.40;;;;;;;;;;5326169;26;20286;-87
2024/04/11 10:19:04;;;;;;;6.23;2.20;;;;;;;;;;5301765;26;20241;-88
2024/04/11 10:21:37;;;;;;;4.43;1.50;;;;;;;;;;5301082;26;20248;-87
2024/04/11 10:24:16;;;;;;;2.10;1.70;;;;;;;;;;5317893;26;20260;-89
2024/04/11 10:26:47;;;;;;;5.03;2.63;;;;;;;;;;5336144;26;20299;-88
2024/04/11 10:29:20;;;;;;;2.23;1.70;;;;;;;;;;5323462;26;20344;-87
2024/04/11 10:31:56;;;;;;;1.87;1.53;;;;;;;;;;5324286;26;20762;-88
2024/04/11 10:34:34;;;;;;;3.23;2.03;;;;;;;;;;5321996;26;20767;-87
2024/04/11 10:37:03;;;;;;;2.03;1.57;;;;;;;;;;5288025;26;20280;-91
2024/04/11 10:39:35;;;;;;;5.13;2.30;;;;;;;;;;5300392;26;20310;-92
2024/04/11 10:42:07;;;;;;;3.13;2.27;;;;;;;;;;5272936;26;20392;-91
2024/04/11 10:44:37;;;;;;;9.83;2.43;;;;;;;;;;5275457;26;20302;-91
2024/04/11 10:47:12;;;;;;;5.17;1.97;;;;;;;;;;5305786;26;20683;-92
2024/04/11 10:49:41;;;;;;;4.93;2.53;;;;;;;;;;5303815;26;20276;-90
2024/04/11 10:52:13;;;;;;;3.73;2.07;;;;;;;;;;5274088;26;20811;-93
2024/04/11 10:54:42;;;;;;;2.67;1.90;;;;;;;;;;5303692;26;20530;-91
2024/04/11 10:57:14;;;;;;;7.93;2.20;;;;;;;;;;5270328;26;20289;-90
2024/04/11 10:59:50;;;;;;;2.17;1.80;;;;;;;;;;5269672;26;20317;-89
2024/04/11 11:02:24;;;;;;;5.17;2.13;;;;;;;;;;5280668;26;20261;-89
2024/04/11 11:04:54;;;;;;;6.40;2.27;;;;;;;;;;5275537;26;20291;-89
2024/04/11 11:07:31;;;;;;;10.30;2.50;;;;;;;;;;5282290;26;20346;-94
2024/04/11 11:10:22;;;;;;;3.57;1.60;;;;;;;;;;5355390;26;20253;-94
2024/04/11 11:12:52;;;;;;;2.60;2.07;;;;;;;;;;5328717;26;20246;-93
2024/04/11 11:15:26;;;;;;;5.83;2.03;;;;;;;;;;5329212;26;20279;-94
2024/04/11 11:17:54;;;;;;;7.03;1.90;;;;;;;;;;5327229;26;20264;-92
2024/04/11 11:20:24;;;;;;;4.60;2.60;;;;;;;;;;5335496;26;20271;-94
2024/04/11 11:26:11;;;;;;;6.10;1.67;;;;;;;;;;5293139;26;20273;-93
2024/04/11 11:32:36;;;;;;;4.47;2.10;;;;;;;;;;5297122;26;20284;-94
2024/04/11 11:35:18;;;;;;;;;;;;;;;;;;;;;
2024/04/11 11:38:15;;;;;;;15.10;2.27;;;;;;;;;;5076482;27;20361;-92
2024/04/11 11:41:31;;;;;;;7.30;1.53;;;;;;;;;;5143344;27;20345;-93
2024/04/11 11:45:05;;;;;;;7.47;2.67;;;;;;;;;;5090277;28;20951;-94
2024/04/11 11:51:26;;;;;;;;;;;;;;;;;;;;;
2024/04/11 11:58:14;;;;;;;;;;;;;;;;;;;;;
2024/04/11 12:14:54;;;;;;;;;;;;;;;;;;;;;
2024/04/11 12:17:35;;;;;;;4.67;2.10;;;;;;;;;;5016302;28;20267;-93
2024/04/11 12:20:07;;;;;;;2.43;1.23;;;;;;;;;;5008010;28;20269;-94
2024/04/11 12:22:36;;;;;;;2.40;1.33;;;;;;;;;;5044939;28;20273;-92
2024/04/11 12:25:02;;;;;;;6.40;2.20;;;;;;;;;;5035401;28;20250;-93
2024/04/11 12:27:29;;;;;;;4.60;2.33;;;;;;;;;;5020176;27;20284;-92
2024/04/11 12:30:22;;;;;;;2.13;1.90;;;;;;;;;;5119273;27;20262;-92
2024/04/11 12:32:49;;;;;;;3.30;1.30;;;;;;;;;;5227377;27;20276;-95
2024/04/11 12:35:20;;;;;;;4.23;2.67;;;;;;;;;;5271639;26;20265;-92
2024/04/11 12:37:52;;;;;;;7.57;2.70;;;;;;;;;;5278677;26;20257;-93
2024/04/11 12:40:33;;;;;;;1.67;1.43;;;;;;;;;;5299678;26;20272;-93
2024/04/11 12:43:09;;;;;;;1.87;1.27;;;;;;;;;;5291496;26;20324;-93
2024/04/11 12:45:39;;;;;;;3.13;1.13;;;;;;;;;;5300226;26;20229;-94
2024/04/11 12:48:17;;;;;;;2.23;1.93;;;;;;;;;;5339275;26;20328;-92
2024/04/11 12:50:50;;;;;;;1.90;1.00;;;;;;;;;;5271458;26;20264;-93
2024/04/11 12:53:25;;;;;;;3.93;1.80;;;;;;;;;;5315805;26;20422;-94
2024/04/11 12:55:55;;;;;;;3.67;1.10;;;;;;;;;;5337417;26;20348;-91
2024/04/11 12:58:27;;;;;;;6.80;2.53;;;;;;;;;;5289311;26;20296;-91
2024/04/11 13:01:03;;;;;;;1.17;1.00;;;;;;;;;;5296282;26;20312;-91
2024/04/11 13:06:29;;;;;;;2.40;1.30;;;;;;;;;;5337637;26;20579;-93
2024/04/11 13:09:10;;;;;;;3.20;1.27;;;;;;;;;;5293220;26;20263;-94
2024/04/11 13:11:40;;;;;;;3.30;1.47;;;;;;;;;;5329306;26;20609;-94
2024/04/11 13:14:17;;;;;;;2.67;1.50;;;;;;;;;;5360753;26;20255;-93
2024/04/11 13:16:47;;;;;;;1.80;1.53;;;;;;;;;;5331580;26;20787;-94
2024/04/11 13:19:27;;;;;;;2.87;2.10;;;;;;;;;;5322525;26;20678;-93
2024/04/11 13:22:05;;;;;;;3.77;1.97;;;;;;;;;;5305763;26;20278;-92
2024/04/11 13:24:45;;;;;;;2.13;1.57;;;;;;;;;;5366107;26;20245;-93
2024/04/11 13:27:16;;;;;;;6.77;1.97;;;;;;;;;;5330539;26;20327;-94
2024/04/11 13:29:48;;;;;;;1.10;1.00;;;;;;;;;;5328322;26;20268;-93
2024/04/11 13:32:20;;;;;;;3.13;1.60;;;;;;;;;;5330387;26;20306;-92
2024/04/11 13:35:07;;;;;;;2.23;1.40;;;;;;;;;;5329001;26;20358;-93
2024/04/11 13:37:37;;;;;;;5.63;1.60;;;;;;;;;;5323573;26;20743;-92
2024/04/11 13:43:06;;;;;;;2.47;1.00;;;;;;;;;;5328112;26;20985;-92
2024/04/11 13:45:41;;;;;;;5.13;1.60;;;;;;;;;;5330028;26;20239;-93
2024/04/11 13:48:12;;;;;;;4.57;2.03;;;;;;;;;;5325224;26;20260;-92
2024/04/11 13:51:15;;;;;;;3.03;1.73;;;;;;;;;;5328458;26;20684;-92
2024/04/11 13:53:32;;;;;;;3.27;1.50;;;;;;;;;;5344573;26;20265;-91
2024/04/11 13:56:04;;;;;;;1.30;1.10;;;;;;;;;;5325795;26;20289;-92
2024/04/11 13:58:35;;;;;;;2.47;1.30;;;;;;;;;;5326382;26;20267;-93
2024/04/11 14:01:05;;;;;;;2.00;1.00;;;;;;;;;;5331458;26;20245;-93
2024/04/11 14:03:45;;;;;;;2.40;1.67;;;;;;;;;;5329092;26;20245;-93
2024/04/11 14:08:42;;;;;;;5.67;1.77;;;;;;;;;;5350561;26;20267;-92
2024/04/11 14:11:19;;;;;;;5.60;1.77;;;;;;;;;;5303072;26;20298;-93
2024/04/11 14:13:48;;;;;;;7.33;1.53;;;;;;;;;;5278517;26;20271;-94
2024/04/11 14:16:14;;;;;;;3.43;1.20;;;;;;;;;;5275598;26;20300;-92
2024/04/11 14:18:47;;;;;;;1.20;1.03;;;;;;;;;;5331374;26;20344;-86
2024/04/11 14:21:47;;;;;;;5.20;1.93;;;;;;;;;;5300899;26;20264;-86
2024/04/11 14:24:34;;;;;;;2.20;1.53;;;;;;;;;;5300590;26;20760;-86
2024/04/11 14:27:06;;;;;;;0.93;0.87;;;;;;;;;;5271703;26;20506;-86
2024/04/11 14:29:32;;;;;;;4.60;1.20;;;;;;;;;;5273289;26;20257;-88
2024/04/11 14:31:58;;;;;;;4.30;1.80;;;;;;;;;;5222241;27;20298;-85
2024/04/11 14:35:22;;;;;;;1.93;1.53;;;;;;;;;;5179411;27;20296;-87
2024/04/11 14:37:46;;;;;;;1.13;0.93;;;;;;;;;;5262047;27;20267;-87
2024/04/11 14:40:06;;;;;;;1.73;0.90;;;;;;;;;;5234617;27;20337;-86
2024/04/11 14:42:34;;;;;;;4.17;1.33;;;;;;;;;;5242469;26;20268;-85
2024/04/11 14:45:06;;;;;;;5.60;2.17;;;;;;;;;;5246641;26;20261;-86
2024/04/11 14:47:33;;;;;;;5.97;1.17;;;;;;;;;;5300715;26;20362;-86
2024/04/11 14:50:02;;;;;;;2.27;2.07;;;;;;;;;;5275922;26;20303;-85
2024/04/11 14:52:31;;;;;;;3.17;1.67;;;;;;;;;;5259901;26;20358;-86
2024/04/11 14:54:58;;;;;;;3.17;2.47;;;;;;;;;;5275089;26;20342;-86
2024/04/11 14:57:24;;;;;;;2.70;1.57;;;;;;;;;;5276153;26;20241;-86
2024/04/11 14:59:58;;;;;;;2.70;1.03;;;;;;;;;;5242712;27;20266;-84
2024/04/11 15:02:27;;;;;;;1.97;1.17;;;;;;;;;;5265072;26;20302;-87
2024/04/11 15:05:00;;;;;;;4.17;1.53;;;;;;;;;;5330305;26;20306;-85
2024/04/11 15:07:29;;;;;;;3.67;1.70;;;;;;;;;;5336218;26;20729;-85
2024/04/11 15:09:59;;;;;;;1.57;1.47;;;;;;;;;;5326036;26;20260;-85
2024/04/11 15:12:28;;;;;;;1.10;1.10;;;;;;;;;;5328767;26;20286;-85
2024/04/11 15:15:00;;;;;;;4.97;1.93;;;;;;;;;;5328583;26;20268;-88
2024/04/11 15:17:34;;;;;;;4.07;1.80;;;;;;;;;;5352568;26;20302;-86
2024/04/11 15:20:09;;;;;;;10.10;2.33;;;;;;;;;;5327081;26;20280;-86
2024/04/11 15:22:42;;;;;;;2.77;1.93;;;;;;;;;;5326975;26;20264;-84
2024/04/11 15:25:17;;;;;;;4.70;2.27;;;;;;;;;;5323951;26;20276;-88
2024/04/11 15:27:49;;;;;;;4.83;1.87;;;;;;;;;;5326100;26;20832;-87
2024/04/11 15:30:24;;;;;;;7.63;1.80;;;;;;;;;;5326441;26;20291;-86
2024/04/11 15:32:56;;;;;;;3.07;1.80;;;;;;;;;;5327524;26;20303;-84
2024/04/11 15:35:22;;;;;;;6.13;2.13;;;;;;;;;;5299681;26;20267;-85
2024/04/11 15:38:16;;;;;;;9.13;1.40;;;;;;;;;;5325218;26;20268;-85
2024/04/11 15:40:46;;;;;;;2.80;1.17;;;;;;;;;;5349035;26;20280;-84
2024/04/11 15:43:26;;;;;;;3.40;2.27;;;;;;;;;;5326018;26;20260;-85
2024/04/11 15:45:57;;;;;;;3.33;1.23;;;;;;;;;;5329330;26;20272;-84
2024/04/11 15:48:23;;;;;;;2.30;1.20;;;;;;;;;;5299342;26;20264;-85
2024/04/11 15:50:49;;;;;;;5.77;1.63;;;;;;;;;;5325279;26;20268;-86
2024/04/11 15:53:19;;;;;;;5.67;1.80;;;;;;;;;;5324881;26;20352;-85